< < Back
Terminal Aerodrome Forecast


Current Version              Previous Versions:   1  2  3  4  5  6  7  8  9  

Terminal Aerodrome Forecast

235
FTUS42 KFFC 282338
TAFMCN
TAF
KMCN 282338Z 2900/2924 07006KT P6SM FEW050
     FM290300 09003KT P6SM FEW060 SCT250
     FM291400 31005KT P6SM FEW040 SCT120
     FM291800 33007KT P6SM SCT060 BKN120
     FM292300 35006KT P6SM SCT250=

Latest METAR

167
SAUS80 KWBC 290600 RRA
MTRMCN
METAR KMCN 290553Z AUTO 11004KT 10SM SCT080 21/18 A3009 RMK AO2 SLP183
T02060178 10278 20200 56006 TSNO


USA.gov is the U.S. government's official web portal to all federal, state and local government web resources and services.